Adak, AK

4:24 AM HST on February 22, 2017 (GMT -1000)
Adak

Weather History for PADK - December, 2012

Change the Weather History Date:

Sunday, December 23, 2012

  Actual Average Record
Temperature  
Mean Temperature 32 °F -  
Max Temperature 37 °F 37 °F 48 °F (2008)
Min Temperature 28 °F 28 °F 12 °F (1999)
Degree Days  
Heating Degree Days 32    
Moisture  
Dew Point 27 °F    
Average Humidity 73    
Maximum Humidity 86    
Minimum Humidity 60    
Precipitation  
Precipitation 0.00 in - - ()
Sea Level Pressure  
Sea Level Pressure 29.97 in    
Wind  
Wind Speed 11 mph (East)    
Max Wind Speed 20 mph    
Max Gust Speed 25 mph    
Visibility 10 miles    
Events      
Averages and records for this station are not official NWS values.
T = Trace of Precipitation, MM = Missing Value Source: NWS Daily Summary

Daily Weather History Graph

Daily Weather History Graph

Search for Another Location

Airport or City:

Trip Planner

Search our weather history database for the weather conditions in past years. The results will help you decide how hot, cold, wet, or windy it might be!

Date:

Astronomy

Dec. 23, 2012 Rise Set
Actual Time 9:53 AM HST 5:39 PM HST
Civil Twilight 9:12 AM HST 6:20 PM HST
Nautical Twilight 8:28 AM HST 7:03 PM HST
Astronomical Twilight 7:47 AM HST 7:44 PM HST
Moon 2:51 PM HST (12/23) 5:34 AM HST (12/23)
Length of Visible Light 9h 07m
Length of Day
7h 46m
Waxing Gibbous, 83% of the Moon is Illuminated
Dec 23
Waxing Gibbous
Dec 28
Full
Jan 4
Last Quarter
Jan 11
New
Jan 18
First Quarter

Hourly Weather History & Observations

Time (HST) Temp. Windchill Dew Point Humidity Pressure Visibility Wind Dir Wind Speed Gust Speed Precip Events Conditions
12:16 AM 35.6 °F 28.6 °F 28.4 °F 75% 30.09 in 10.0 mi North 9.2 mph - N/A   Clear
12:36 AM 32.0 °F 22.5 °F 26.6 °F 80% 30.09 in 10.0 mi NNE 12.7 mph - N/A   Clear
12:56 AM 35.6 °F 25.5 °F 28.4 °F 75% 30.09 in 10.0 mi East 17.3 mph - N/A   Clear
1:16 AM 35.6 °F 25.9 °F 28.4 °F 75% 30.09 in 10.0 mi NE 16.1 mph - N/A   Clear
1:36 AM 35.6 °F 28.6 °F 28.4 °F 75% 30.09 in 10.0 mi ENE 9.2 mph - N/A   Partly Cloudy
1:56 AM 35.6 °F 25.2 °F 28.4 °F 75% 30.09 in 10.0 mi East 18.4 mph - N/A   Partly Cloudy
2:16 AM 35.6 °F 26.6 °F 28.4 °F 75% 30.09 in 10.0 mi ENE 13.8 mph 25.3 mph N/A   Scattered Clouds
2:36 AM 35.6 °F 25.2 °F 28.4 °F 75% 30.09 in 10.0 mi East 18.4 mph - N/A   Overcast
2:56 AM 35.6 °F 25.5 °F 28.4 °F 75% 30.08 in 10.0 mi East 17.3 mph - N/A   Scattered Clouds
3:16 AM 35.6 °F 25.5 °F 28.4 °F 75% 30.08 in 10.0 mi ENE 17.3 mph - N/A   Clear
3:36 AM 35.6 °F 28.0 °F 28.4 °F 75% 30.09 in 10.0 mi NE 10.4 mph - N/A   Mostly Cloudy
3:56 AM 35.6 °F 27.5 °F 28.4 °F 75% 30.09 in 10.0 mi NNE 11.5 mph - N/A   Mostly Cloudy
4:16 AM 35.6 °F 25.5 °F 28.4 °F 75% 30.09 in 10.0 mi East 17.3 mph - N/A   Mostly Cloudy
4:36 AM 35.6 °F 24.8 °F 28.4 °F 75% 30.08 in 10.0 mi East 19.6 mph - N/A   Partly Cloudy
4:56 AM 35.6 °F 27.5 °F 28.4 °F 75% 30.07 in 10.0 mi NNE 11.5 mph 16.1 mph N/A   Clear
5:16 AM 33.8 °F 25.8 °F 26.6 °F 75% 30.07 in 10.0 mi NNE 10.4 mph - N/A   Partly Cloudy
5:36 AM 33.8 °F 29.6 °F 26.6 °F 75% 30.05 in 10.0 mi North 4.6 mph - N/A   Clear
5:56 AM 35.6 °F 25.5 °F 26.6 °F 70% 30.07 in 10.0 mi East 17.3 mph 21.9 mph N/A   Partly Cloudy
6:16 AM 35.6 °F 25.2 °F 26.6 °F 70% 30.06 in 10.0 mi East 18.4 mph - N/A   Partly Cloudy
6:36 AM 33.8 °F 26.4 °F 26.6 °F 75% 30.07 in 10.0 mi NNE 9.2 mph - N/A   Partly Cloudy
6:56 AM 32.0 °F 24.8 °F 26.6 °F 80% 30.06 in 10.0 mi NNE 8.1 mph - N/A   Partly Cloudy
7:16 AM 33.8 °F 23.9 °F 28.4 °F 81% 30.06 in 10.0 mi East 15.0 mph - N/A   Scattered Clouds
7:36 AM 35.6 °F 25.5 °F 28.4 °F 75% 30.05 in 10.0 mi East 17.3 mph - N/A   Mostly Cloudy
7:56 AM 35.6 °F 26.6 °F 28.4 °F 75% 30.05 in 10.0 mi NE 13.8 mph - N/A   Scattered Clouds
8:16 AM 32.0 °F 24.8 °F 24.8 °F 75% 30.05 in 10.0 mi NNE 8.1 mph - N/A   Mostly Cloudy
8:36 AM 30.2 °F 19.3 °F 24.8 °F 80% 30.05 in 10.0 mi East 15.0 mph 18.4 mph N/A   Mostly Cloudy
8:56 AM 35.6 °F 25.5 °F 28.4 °F 75% 30.05 in 10.0 mi East 17.3 mph - N/A   Mostly Cloudy
9:16 AM 35.6 °F 25.9 °F 28.4 °F 75% 30.05 in 10.0 mi East 16.1 mph - N/A   Mostly Cloudy
9:36 AM 35.6 °F 27.5 °F 26.6 °F 70% 30.04 in 10.0 mi NE 11.5 mph - N/A   Mostly Cloudy
9:56 AM 30.2 °F 22.6 °F 24.8 °F 80% 30.05 in 10.0 mi NNE 8.1 mph - N/A   Partly Cloudy
10:16 AM 28.4 °F 21.2 °F 24.8 °F 86% 30.05 in 10.0 mi North 6.9 mph - N/A   Clear
10:36 AM 35.6 °F 27.1 °F 28.4 °F 75% 30.04 in 10.0 mi East 12.7 mph - N/A   Clear
10:56 AM 35.6 °F 25.5 °F 28.4 °F 75% 30.04 in 10.0 mi ENE 17.3 mph - N/A   Clear
11:16 AM 33.8 °F 27.0 °F 24.8 °F 70% 30.03 in 10.0 mi NNE 8.1 mph - N/A   Clear
11:36 AM 33.8 °F 28.6 °F 26.6 °F 75% 30.02 in 10.0 mi NNE 5.8 mph - N/A   Clear
11:56 AM 35.6 °F 27.1 °F 28.4 °F 75% 30.03 in 10.0 mi East 12.7 mph - N/A   Clear
12:16 PM 35.6 °F 26.6 °F 28.4 °F 75% 30.01 in 10.0 mi East 13.8 mph - N/A   Clear
12:36 PM 37.4 °F 28.9 °F 26.6 °F 65% 30.00 in 10.0 mi East 13.8 mph - N/A   Clear
12:56 PM 35.6 °F 29.2 °F 26.6 °F 70% 30.00 in 10.0 mi NE 8.1 mph - N/A   Clear
1:16 PM 37.4 °F 30.8 °F 26.6 °F 65% 29.99 in 10.0 mi ENE 9.2 mph - N/A   Partly Cloudy
1:36 PM 37.4 °F 30.8 °F 28.4 °F 70% 29.99 in 10.0 mi ENE 9.2 mph - N/A   Mostly Cloudy
1:56 PM 37.4 °F 29.3 °F 26.6 °F 65% 29.98 in 10.0 mi East 12.7 mph - N/A   Scattered Clouds
2:16 PM 37.4 °F 28.2 °F 28.4 °F 70% 29.97 in 10.0 mi East 16.1 mph - N/A   Partly Cloudy
2:36 PM 37.4 °F 31.4 °F 28.4 °F 70% 29.96 in 10.0 mi East 8.1 mph - N/A   Mostly Cloudy
2:56 PM 37.4 °F 32.1 °F 26.6 °F 65% 29.96 in 10.0 mi East 6.9 mph - N/A   Mostly Cloudy
3:16 PM 37.4 °F 30.8 °F 28.4 °F 70% 29.95 in 10.0 mi East 9.2 mph - N/A   Overcast
3:36 PM 37.4 °F 32.1 °F 26.6 °F 65% 29.94 in 10.0 mi East 6.9 mph - N/A   Mostly Cloudy
3:56 PM 37.4 °F 33.8 °F 24.8 °F 60% 29.93 in 10.0 mi SE 4.6 mph - N/A   Partly Cloudy
4:16 PM 37.4 °F 34.9 °F 26.6 °F 65% 29.92 in 10.0 mi South 3.5 mph - N/A   Partly Cloudy
4:36 PM 35.6 °F 32.8 °F 26.6 °F 70% 29.92 in 10.0 mi SSE 3.5 mph - N/A   Mostly Cloudy
4:56 PM 35.6 °F 31.7 °F 26.6 °F 70% 29.91 in 10.0 mi South 4.6 mph - N/A   Overcast
5:16 PM 33.8 °F 30.8 °F 26.6 °F 75% 29.90 in 10.0 mi SSE 3.5 mph - N/A   Overcast
5:36 PM 35.6 °F 31.7 °F 24.8 °F 65% 29.90 in 10.0 mi SSE 4.6 mph - N/A   Overcast
5:56 PM 35.6 °F 29.9 °F 26.6 °F 70% 29.89 in 10.0 mi SSE 6.9 mph - N/A   Overcast
6:16 PM 33.8 °F 27.0 °F 24.8 °F 70% 29.87 in 10.0 mi SE 8.1 mph - N/A   Mostly Cloudy
6:36 PM 33.8 °F 28.6 °F 24.8 °F 70% 29.87 in 10.0 mi SE 5.8 mph - N/A   Partly Cloudy
6:56 PM 33.8 °F 27.7 °F 24.8 °F 70% 29.85 in 10.0 mi ESE 6.9 mph - N/A   Partly Cloudy
7:16 PM 33.8 °F 28.6 °F 24.8 °F 70% 29.85 in 10.0 mi SE 5.8 mph - N/A   Partly Cloudy
7:36 PM 30.2 °F 23.4 °F 24.8 °F 80% 29.86 in 10.0 mi SW 6.9 mph - N/A   Scattered Clouds
7:56 PM 30.2 °F 26.7 °F 24.8 °F 80% 29.85 in 10.0 mi SW 3.5 mph - N/A   Mostly Cloudy
8:16 PM 30.2 °F - 24.8 °F 80% 29.83 in 10.0 mi Calm Calm - N/A   Overcast
8:36 PM 30.2 °F 26.7 °F 24.8 °F 80% 29.81 in 10.0 mi SSW 3.5 mph - N/A   Overcast
8:56 PM 33.8 °F 27.0 °F 24.8 °F 70% 29.80 in 10.0 mi SE 8.1 mph - N/A   Mostly Cloudy
9:16 PM 33.8 °F 27.0 °F 24.8 °F 70% 29.80 in 10.0 mi SSE 8.1 mph - N/A   Partly Cloudy
9:36 PM 33.8 °F 29.6 °F 24.8 °F 70% 29.79 in 10.0 mi South 4.6 mph - N/A   Mostly Cloudy
9:56 PM 33.8 °F 29.6 °F 24.8 °F 70% 29.78 in 10.0 mi South 4.6 mph - N/A   Overcast
10:16 PM 33.8 °F 30.8 °F 24.8 °F 70% 29.77 in 10.0 mi SSW 3.5 mph - N/A   Overcast
10:36 PM 33.8 °F 30.8 °F 24.8 °F 70% 29.76 in 10.0 mi South 3.5 mph - N/A   Overcast
10:56 PM 33.8 °F 28.6 °F 24.8 °F 70% 29.73 in 10.0 mi SE 5.8 mph - N/A   Overcast
11:16 PM 35.6 °F 27.1 °F 26.6 °F 70% 29.72 in 10.0 mi SE 12.7 mph - N/A   Overcast
11:36 PM 35.6 °F 28.6 °F 26.6 °F 70% 29.71 in 10.0 mi SE 9.2 mph - N/A   Overcast
11:56 PM 35.6 °F 28.6 °F 26.6 °F 70% 29.69 in 10.0 mi SSE 9.2 mph 16.1 mph N/A   Overcast